createdAt,value
2024-04-18T06:49:30.977Z,50.00
2024-04-18T06:50:30.977Z,50.00
2024-04-18T06:51:30.995Z,50.00
2024-04-18T06:52:30.949Z,50.00
2024-04-18T06:53:30.958Z,50.00
2024-04-18T06:54:30.985Z,0.00
2024-04-18T06:55:30.952Z,0.00
2024-04-18T06:56:30.957Z,0.00
2024-04-18T06:57:30.983Z,0.00
2024-04-18T06:58:30.961Z,0.00
2024-04-18T06:59:30.961Z,0.00
2024-04-18T07:00:31.023Z,0.00
2024-04-18T07:01:30.966Z,0.00
2024-04-18T07:02:30.997Z,0.00
2024-04-18T07:03:31.140Z,0.00
2024-04-18T07:04:31.129Z,0.00
2024-04-18T07:05:31.027Z,0.00
2024-04-18T07:06:31.032Z,0.00
2024-04-18T07:07:31.016Z,0.00
2024-04-18T07:08:31.013Z,0.00
2024-04-18T07:09:31.065Z,0.00
2024-04-18T07:10:31.039Z,0.00
2024-04-18T07:11:31.065Z,0.00
2024-04-18T07:12:31.041Z,0.00
2024-04-18T07:13:33.464Z,0.00
2024-04-18T07:14:31.022Z,0.00
2024-04-18T07:15:31.082Z,0.00
2024-04-18T07:16:31.035Z,0.00
2024-04-18T07:17:31.079Z,0.00
2024-04-18T07:18:31.130Z,0.00
2024-04-18T07:19:31.023Z,0.00
2024-04-18T07:20:31.592Z,0.00
2024-04-18T07:21:31.091Z,0.00
2024-04-18T07:22:31.036Z,0.00
2024-04-18T07:23:31.048Z,0.00
2024-04-18T07:24:31.050Z,0.00
2024-04-18T07:25:31.025Z,0.00
2024-04-18T07:26:31.065Z,0.00
2024-04-18T07:27:31.051Z,0.00
2024-04-18T07:28:31.041Z,0.00
2024-04-18T07:29:31.050Z,0.00
2024-04-18T07:30:31.098Z,0.00
2024-04-18T07:31:31.066Z,0.00
2024-04-18T07:32:31.122Z,0.00
2024-04-18T07:33:31.209Z,0.00
2024-04-18T07:34:31.087Z,0.00
2024-04-18T07:35:31.067Z,0.00
2024-04-18T07:36:31.113Z,0.00
2024-04-18T07:37:32.938Z,2.21
2024-04-18T07:38:31.080Z,18.35
2024-04-18T07:39:31.080Z,39.33
2024-04-18T07:40:31.092Z,51.06
2024-04-18T07:41:31.064Z,50.00
2024-04-18T07:42:31.111Z,50.00
2024-04-18T07:43:31.044Z,50.98
2024-04-18T07:44:31.049Z,49.73
2024-04-18T07:45:31.071Z,50.00
2024-04-18T07:46:31.055Z,54.93
2024-04-18T07:47:31.130Z,53.05
2024-04-18T07:48:31.208Z,51.38
2024-04-18T07:49:31.214Z,51.43
2024-04-18T07:50:31.321Z,51.44
2024-04-18T07:51:31.440Z,51.51
2024-04-18T07:52:31.549Z,51.86
2024-04-18T07:53:31.683Z,52.43
2024-04-18T07:54:31.769Z,50.63
2024-04-18T07:55:31.892Z,51.97
2024-04-18T07:56:32.545Z,51.14
2024-04-18T07:57:32.587Z,51.46
2024-04-18T07:58:32.544Z,50.00
2024-04-18T07:59:32.971Z,51.62
2024-04-18T08:00:34.168Z,51.25
2024-04-18T08:01:34.211Z,50.73
2024-04-18T08:02:34.425Z,50.29
2024-04-18T08:03:36.211Z,50.33
2024-04-18T08:05:35.030Z,43.30
2024-04-18T08:06:34.505Z,42.23
2024-04-18T08:07:34.878Z,43.55
2024-04-18T08:08:34.962Z,40.85
2024-04-18T08:09:34.690Z,41.91
2024-04-18T08:10:36.815Z,40.83
2024-04-18T08:12:04.679Z,41.01
2024-04-18T08:12:37.744Z,38.16
2024-04-18T08:13:37.746Z,40.76
2024-04-18T08:14:37.886Z,41.00
2024-04-18T08:16:33.639Z,39.79
2024-04-18T08:17:32.682Z,31.60
2024-04-18T08:18:32.541Z,25.20
2024-04-18T08:19:32.525Z,20.01
2024-04-18T08:20:32.531Z,17.63
2024-04-18T08:21:32.633Z,30.70
2024-04-18T08:22:32.572Z,50.29
2024-04-18T08:23:32.526Z,53.16
2024-04-18T08:24:32.588Z,51.84
2024-04-18T08:25:32.537Z,50.00
2024-04-18T08:26:32.546Z,50.80
2024-04-18T08:27:32.591Z,51.82
2024-04-18T08:28:32.516Z,49.94
2024-04-18T08:29:32.557Z,50.87
2024-04-18T08:30:32.596Z,52.46
2024-04-18T08:31:32.629Z,50.77
2024-04-18T08:32:32.553Z,50.99
2024-04-18T08:33:32.608Z,51.20
2024-04-18T08:34:33.610Z,51.49
2024-04-18T08:35:32.561Z,52.30
2024-04-18T08:36:32.593Z,49.57
2024-04-18T08:37:32.555Z,52.87
2024-04-18T08:38:32.570Z,51.68
2024-04-18T08:39:32.608Z,52.26
2024-04-18T08:40:32.570Z,50.35
2024-04-18T08:41:35.216Z,53.86
2024-04-18T08:42:32.546Z,53.89
2024-04-18T08:43:32.562Z,49.64
2024-04-18T08:44:32.558Z,52.05
2024-04-18T08:45:32.602Z,50.69
2024-04-18T08:46:32.620Z,51.55
2024-04-18T08:47:34.179Z,52.96
2024-04-18T08:48:32.642Z,50.44
2024-04-18T08:49:32.593Z,51.88
2024-04-18T08:50:32.559Z,52.66
2024-04-18T08:51:32.709Z,50.73
2024-04-18T08:52:35.672Z,50.14
2024-04-18T08:53:32.603Z,53.41
2024-04-18T08:54:32.639Z,50.94
2024-04-18T08:55:32.634Z,50.33
2024-04-18T08:56:32.622Z,52.73
2024-04-18T08:57:32.681Z,52.86
2024-04-18T08:58:32.624Z,52.09
2024-04-18T08:59:32.614Z,52.12
2024-04-18T09:00:32.709Z,56.07
2024-04-18T09:01:32.657Z,53.26
2024-04-18T09:02:32.684Z,53.71
2024-04-18T09:03:32.742Z,53.40
2024-04-18T09:04:32.644Z,54.47
2024-04-18T09:05:33.769Z,52.79
2024-04-18T09:06:32.748Z,53.19
2024-04-18T09:07:32.620Z,52.39
2024-04-18T09:08:32.634Z,53.48
2024-04-18T09:09:32.680Z,54.75
2024-04-18T09:10:33.550Z,51.92
2024-04-18T09:11:33.899Z,50.87
2024-04-18T09:12:32.722Z,51.43
2024-04-18T09:13:32.640Z,52.05
2024-04-18T09:14:32.627Z,53.09
2024-04-18T09:15:32.766Z,50.00
2024-04-18T09:16:32.628Z,55.82
2024-04-18T09:17:32.677Z,55.47
2024-04-18T09:18:32.847Z,54.46
2024-04-18T09:19:32.618Z,53.05
2024-04-18T09:20:32.638Z,53.68
2024-04-18T09:21:32.678Z,51.55
2024-04-18T09:22:32.628Z,52.97
2024-04-18T09:23:32.659Z,51.00
2024-04-18T09:24:32.715Z,52.68
2024-04-18T09:25:34.746Z,57.01
2024-04-18T09:26:32.668Z,59.24
2024-04-18T09:27:32.692Z,57.09
2024-04-18T09:28:32.647Z,53.92
2024-04-18T09:29:32.656Z,51.41
2024-04-18T09:30:32.720Z,50.43
2024-04-18T09:31:38.392Z,52.01
2024-04-18T09:32:33.753Z,52.18
2024-04-18T09:33:32.697Z,52.53
2024-04-18T09:34:32.652Z,53.21
2024-04-18T09:35:32.684Z,53.60
2024-04-18T09:36:32.661Z,58.81
2024-04-18T09:37:32.681Z,63.15
2024-04-18T09:38:32.671Z,64.35
2024-04-18T09:39:32.695Z,70.12
2024-04-18T09:40:32.668Z,72.81
2024-04-18T09:41:32.696Z,76.06
2024-04-18T09:42:32.880Z,75.38
2024-04-18T09:43:32.921Z,77.06
2024-04-18T09:44:33.030Z,83.25
2024-04-18T09:45:33.132Z,87.41
2024-04-18T09:46:33.214Z,88.62
2024-04-18T09:47:33.345Z,90.59
2024-04-18T09:48:33.590Z,93.30
2024-04-18T09:49:33.663Z,96.73
2024-04-18T09:50:33.655Z,108.95
2024-04-18T09:51:33.792Z,103.68
2024-04-18T09:52:33.837Z,88.96
2024-04-18T09:53:33.939Z,83.02
2024-04-18T09:54:34.152Z,72.00
2024-04-18T09:55:35.086Z,64.12
2024-04-18T09:56:34.167Z,57.23
2024-04-18T09:57:34.227Z,51.74
2024-04-18T09:58:34.229Z,51.27
2024-04-18T09:59:34.251Z,50.00
2024-04-18T10:00:34.299Z,50.63
2024-04-18T10:01:34.435Z,55.93
2024-04-18T10:02:34.538Z,54.95
2024-04-18T10:03:34.639Z,50.75
2024-04-18T10:04:34.679Z,50.89
2024-04-18T10:05:34.738Z,50.61
2024-04-18T10:06:35.132Z,50.38
2024-04-18T10:07:34.890Z,54.02
2024-04-18T10:08:34.940Z,50.00
2024-04-18T10:09:35.113Z,52.22
2024-04-18T10:10:35.058Z,50.00
2024-04-18T10:11:35.248Z,52.64
2024-04-18T10:12:35.269Z,50.00
2024-04-18T10:13:35.246Z,51.80
2024-04-18T10:14:35.289Z,50.40
2024-04-18T10:15:35.374Z,50.00
2024-04-18T10:16:35.419Z,51.98
2024-04-18T10:17:35.546Z,50.37
2024-04-18T10:18:35.735Z,51.24
2024-04-18T10:19:35.665Z,49.90
2024-04-18T10:20:35.634Z,50.00
2024-04-18T10:21:43.199Z,50.00
2024-04-18T10:22:45.530Z,48.88
2024-04-18T10:23:36.699Z,50.03
2024-04-18T10:24:35.883Z,46.24
2024-04-18T10:25:35.710Z,43.49
2024-04-18T10:26:35.727Z,39.38
2024-04-18T10:27:35.942Z,37.76
2024-04-18T10:28:35.792Z,50.96
2024-04-18T10:29:35.822Z,50.86
2024-04-18T10:30:35.996Z,50.81
2024-04-18T10:31:35.819Z,50.00
2024-04-18T10:32:35.841Z,51.61
2024-04-18T10:33:35.799Z,50.99
2024-04-18T10:34:35.875Z,51.70
2024-04-18T10:35:35.748Z,52.78
2024-04-18T10:36:35.992Z,53.29
2024-04-18T10:37:35.769Z,53.24
2024-04-18T10:38:35.743Z,58.56
2024-04-18T10:39:35.983Z,60.09
2024-04-18T10:40:35.836Z,64.68
2024-04-18T10:41:35.751Z,70.53
2024-04-18T10:42:35.856Z,75.88
2024-04-18T10:43:35.720Z,84.89
2024-04-18T10:44:35.729Z,91.49
2024-04-18T10:45:35.930Z,95.44
2024-04-18T10:46:35.767Z,102.94
2024-04-18T10:47:35.986Z,106.16
2024-04-18T10:48:35.906Z,109.15
2024-04-18T10:49:35.881Z,111.16
2024-04-18T10:50:35.766Z,113.89
2024-04-18T10:51:36.000Z,113.55
2024-04-18T10:52:35.872Z,114.91
2024-04-18T10:53:35.897Z,113.18
2024-04-18T10:54:35.941Z,115.43
2024-04-18T10:55:35.806Z,117.53
2024-04-18T10:56:35.763Z,115.34
2024-04-18T10:57:35.890Z,116.61
2024-04-18T10:58:35.920Z,119.26
2024-04-18T10:59:35.982Z,121.28
2024-04-18T11:00:36.155Z,118.36
2024-04-18T11:01:36.981Z,114.45
2024-04-18T11:02:36.429Z,119.08
2024-04-18T11:03:36.453Z,116.92
2024-04-18T11:04:36.395Z,117.59
2024-04-18T11:05:36.496Z,120.03
2024-04-18T11:06:36.673Z,120.08
2024-04-18T11:07:36.696Z,119.94
2024-04-18T11:08:36.906Z,120.50
2024-04-18T11:09:36.917Z,122.39
2024-04-18T11:10:37.045Z,118.47
2024-04-18T11:11:37.154Z,118.81
2024-04-18T11:12:37.288Z,122.06
2024-04-18T11:13:37.327Z,130.07
2024-04-18T11:14:37.458Z,121.76
2024-04-18T11:15:37.613Z,121.04
2024-04-18T11:16:37.678Z,114.23
2024-04-18T11:17:37.804Z,107.91
2024-04-18T11:18:37.975Z,110.82
2024-04-18T11:19:37.969Z,115.90
2024-04-18T11:20:38.071Z,119.23
2024-04-18T11:21:38.255Z,113.13
2024-04-18T11:22:38.317Z,111.44
2024-04-18T11:23:44.643Z,108.28
2024-04-18T11:24:39.449Z,108.28
2024-04-18T11:25:38.422Z,102.88
2024-04-18T11:26:38.394Z,99.41
2024-04-18T11:27:38.456Z,98.66
2024-04-18T11:28:38.428Z,90.98
2024-04-18T11:29:38.418Z,89.16
2024-04-18T11:30:38.472Z,79.44
2024-04-18T11:31:38.412Z,82.57
2024-04-18T11:32:38.594Z,84.38
2024-04-18T11:33:38.703Z,87.33
2024-04-18T11:34:38.746Z,89.85
2024-04-18T11:35:38.846Z,92.70
2024-04-18T11:36:38.981Z,97.58
2024-04-18T11:37:39.070Z,96.01
2024-04-18T11:38:39.174Z,96.85
2024-04-18T11:39:39.313Z,94.21
2024-04-18T11:40:39.377Z,91.13
2024-04-18T11:41:39.460Z,84.85
2024-04-18T11:42:39.636Z,80.50
2024-04-18T11:43:39.661Z,75.48
2024-04-18T11:44:39.773Z,72.11
2024-04-18T11:45:39.888Z,67.54
2024-04-18T11:46:39.928Z,63.96
2024-04-18T11:47:40.356Z,64.53
2024-04-18T11:48:40.305Z,64.96
2024-04-18T11:49:40.417Z,65.32
2024-04-18T11:50:40.342Z,64.48
2024-04-18T11:51:40.466Z,65.35
2024-04-18T11:52:40.537Z,63.00
2024-04-18T11:53:40.707Z,62.21
2024-04-18T11:54:41.235Z,57.13
2024-04-18T11:55:40.763Z,51.68
2024-04-18T11:56:40.796Z,50.14
2024-04-18T11:57:40.865Z,50.09
2024-04-18T11:58:40.863Z,58.12
2024-04-18T11:59:40.920Z,50.72
2024-04-18T12:00:41.027Z,51.88
2024-04-18T12:01:41.021Z,50.96
2024-04-18T12:02:41.110Z,51.05
2024-04-18T12:03:41.292Z,53.39
2024-04-18T12:04:42.353Z,53.43
2024-04-18T12:05:41.224Z,51.40
2024-04-18T12:06:41.320Z,50.26
2024-04-18T12:07:41.365Z,51.23
2024-04-18T12:08:41.406Z,52.39
2024-04-18T12:09:41.479Z,51.62
2024-04-18T12:10:41.571Z,51.49
2024-04-18T12:11:41.629Z,51.38
2024-04-18T12:12:41.721Z,52.78
2024-04-18T12:13:41.831Z,53.44
2024-04-18T12:14:41.890Z,55.96
2024-04-18T12:15:42.091Z,72.37
2024-04-18T12:16:42.050Z,78.81
2024-04-18T12:17:42.201Z,80.55
2024-04-18T12:18:42.259Z,82.55
2024-04-18T12:19:44.195Z,84.69
2024-04-18T12:20:42.373Z,92.74
2024-04-18T12:21:42.449Z,92.54
2024-04-18T12:22:42.500Z,94.65
2024-04-18T12:23:42.588Z,99.33
2024-04-18T12:24:42.697Z,96.56
2024-04-18T12:25:42.798Z,101.71
2024-04-18T12:26:42.985Z,102.48
2024-04-18T12:27:43.044Z,102.67
2024-04-18T12:28:43.102Z,103.46
2024-04-18T12:29:43.202Z,103.62
2024-04-18T12:30:43.375Z,103.82
2024-04-18T12:31:43.415Z,106.39
2024-04-18T12:32:43.591Z,108.16
2024-04-18T12:33:43.645Z,105.00
2024-04-18T12:34:43.744Z,103.28
2024-04-18T12:35:43.866Z,105.82
2024-04-18T12:36:44.007Z,106.54
2024-04-18T12:37:44.118Z,107.86
2024-04-18T12:38:44.188Z,112.03
2024-04-18T12:39:44.301Z,109.54
2024-04-18T12:40:44.415Z,104.43
2024-04-18T12:41:44.503Z,101.56
2024-04-18T12:42:44.607Z,104.01
2024-04-18T12:43:44.740Z,99.79
2024-04-18T12:44:44.843Z,98.48
2024-04-18T12:45:45.005Z,98.61
2024-04-18T12:46:45.089Z,102.52
2024-04-18T12:47:45.205Z,103.19
2024-04-18T12:48:45.466Z,102.17
2024-04-18T12:49:45.540Z,102.84
2024-04-18T12:50:45.492Z,99.66
2024-04-18T12:51:45.770Z,108.60
2024-04-18T12:52:45.703Z,110.27
2024-04-18T12:53:45.796Z,106.64
2024-04-18T12:54:45.941Z,106.80
2024-04-18T12:55:46.053Z,107.58
2024-04-18T12:56:46.170Z,108.99
2024-04-18T12:57:46.345Z,107.83
2024-04-18T12:58:46.399Z,103.97
2024-04-18T12:59:46.485Z,100.60
2024-04-18T13:00:46.704Z,96.71
2024-04-18T13:01:46.689Z,90.38
2024-04-18T13:02:46.891Z,80.02
2024-04-18T13:03:47.046Z,74.33
2024-04-18T13:04:47.046Z,69.63
2024-04-18T13:05:47.107Z,67.78
2024-04-18T13:06:47.196Z,70.54
2024-04-18T13:07:47.274Z,69.21
2024-04-18T13:08:47.349Z,65.79
2024-04-18T13:09:47.483Z,67.21
2024-04-18T13:10:47.627Z,56.48
2024-04-18T13:11:47.681Z,52.75
2024-04-18T13:12:47.732Z,50.04
2024-04-18T13:13:47.825Z,50.29
2024-04-18T13:14:47.880Z,50.54
2024-04-18T13:15:50.602Z,50.08
2024-04-18T13:16:47.983Z,46.49
2024-04-18T13:17:48.001Z,40.47
2024-04-18T13:18:48.123Z,36.66
2024-04-18T13:19:47.991Z,30.79
2024-04-18T13:20:47.970Z,26.89
2024-04-18T13:21:48.000Z,45.67
2024-04-18T13:22:47.963Z,50.31
2024-04-18T13:23:47.966Z,51.64
2024-04-18T13:24:48.044Z,53.09
2024-04-18T13:25:47.984Z,50.86
2024-04-18T13:26:47.973Z,52.00
2024-04-18T13:27:48.042Z,58.23
2024-04-18T13:28:47.986Z,58.79
2024-04-18T13:29:47.966Z,57.18
2024-04-18T13:30:48.029Z,54.17
2024-04-18T13:31:47.967Z,51.68
2024-04-18T13:32:48.053Z,50.56
2024-04-18T13:33:48.169Z,50.54
2024-04-18T13:34:48.005Z,52.87
2024-04-18T13:35:48.049Z,59.71
2024-04-18T13:36:48.069Z,62.32
2024-04-18T13:37:48.021Z,59.09
2024-04-18T13:38:48.029Z,66.91
2024-04-18T13:39:48.016Z,70.26
2024-04-18T13:40:48.003Z,72.87
2024-04-18T13:41:48.042Z,74.86
2024-04-18T13:42:48.039Z,74.01
2024-04-18T13:43:48.049Z,74.02
2024-04-18T13:44:48.029Z,77.87
2024-04-18T13:45:48.099Z,80.94
2024-04-18T13:46:48.100Z,85.31
2024-04-18T13:47:48.192Z,89.86
2024-04-18T13:48:48.276Z,91.40
2024-04-18T13:49:48.354Z,94.88
2024-04-18T13:50:48.549Z,92.93
2024-04-18T13:51:48.689Z,93.72
2024-04-18T13:52:48.646Z,86.75
2024-04-18T13:53:48.767Z,85.68
2024-04-18T13:54:48.882Z,84.74
2024-04-18T13:55:48.954Z,85.55
2024-04-18T13:56:49.075Z,87.47
2024-04-18T13:57:49.209Z,91.04
2024-04-18T13:58:49.250Z,91.30
2024-04-18T13:59:49.370Z,83.65
2024-04-18T14:00:49.475Z,82.63
2024-04-18T14:01:49.511Z,84.11
2024-04-18T14:02:49.612Z,83.97
2024-04-18T14:03:49.713Z,84.00
2024-04-18T14:04:49.817Z,82.79
2024-04-18T14:05:49.840Z,80.97
2024-04-18T14:06:49.976Z,77.62
2024-04-18T14:07:50.020Z,74.29
2024-04-18T14:08:50.096Z,68.34
2024-04-18T14:09:50.253Z,64.56
2024-04-18T14:10:50.255Z,53.20
2024-04-18T14:11:50.285Z,50.00
2024-04-18T14:12:50.371Z,49.25
2024-04-18T14:13:50.433Z,49.91
2024-04-18T14:14:50.550Z,50.00
2024-04-18T14:15:50.636Z,48.86
2024-04-18T14:16:50.806Z,50.00
2024-04-18T14:17:50.876Z,50.11
2024-04-18T14:18:51.032Z,50.58
2024-04-18T14:19:51.121Z,50.87
2024-04-18T14:20:51.238Z,50.28
2024-04-18T14:21:51.375Z,54.04
2024-04-18T14:22:51.477Z,50.68
2024-04-18T14:23:51.592Z,51.91
2024-04-18T14:24:51.703Z,50.52
2024-04-18T14:25:51.800Z,53.26
2024-04-18T14:26:51.922Z,54.22
2024-04-18T14:27:52.009Z,53.09
2024-04-18T14:28:52.123Z,57.56
2024-04-18T14:29:52.794Z,55.34
2024-04-18T14:30:52.282Z,58.18
2024-04-18T14:31:52.393Z,60.47
2024-04-18T14:32:52.533Z,60.50
2024-04-18T14:33:52.691Z,59.76
2024-04-18T14:34:52.623Z,62.02
2024-04-18T14:35:52.703Z,63.32
2024-04-18T14:36:52.775Z,61.50
2024-04-18T14:37:52.860Z,59.68
2024-04-18T14:38:52.914Z,57.58
2024-04-18T14:39:52.997Z,59.11
2024-04-18T14:41:01.591Z,56.95
2024-04-18T14:41:54.082Z,56.04
2024-04-18T14:42:53.158Z,56.67
2024-04-18T14:43:53.657Z,55.39
2024-04-18T14:44:53.103Z,55.35
2024-04-18T14:45:53.103Z,56.98
2024-04-18T14:46:53.084Z,55.03
2024-04-18T14:47:53.138Z,54.33
2024-04-18T14:48:53.095Z,56.90
2024-04-18T14:49:53.818Z,54.78
2024-04-18T14:50:53.103Z,54.15
2024-04-18T14:51:53.135Z,54.41
2024-04-18T14:52:53.121Z,52.80
2024-04-18T14:53:53.124Z,52.47
2024-04-18T14:54:53.109Z,50.00
2024-04-18T14:55:53.112Z,51.11
2024-04-18T14:56:53.181Z,50.84
2024-04-18T14:57:53.255Z,50.58
2024-04-18T14:58:53.351Z,52.47
2024-04-18T14:59:53.448Z,53.03
2024-04-18T15:00:53.656Z,52.40
2024-04-18T15:01:53.673Z,53.09
2024-04-18T15:02:53.744Z,55.08
2024-04-18T15:03:53.943Z,57.11
2024-04-18T15:04:53.965Z,56.04
2024-04-18T15:05:54.264Z,56.61
2024-04-18T15:06:54.157Z,54.28
2024-04-18T15:07:54.260Z,57.48
2024-04-18T15:08:54.327Z,52.38
2024-04-18T15:09:54.451Z,53.16
2024-04-18T15:10:54.533Z,55.91
2024-04-18T15:11:54.662Z,56.85
2024-04-18T15:12:54.719Z,55.23
2024-04-18T15:13:54.845Z,56.52
2024-04-18T15:14:54.928Z,56.08
2024-04-18T15:15:55.044Z,57.47
2024-04-18T15:16:55.141Z,57.86
2024-04-18T15:17:55.252Z,59.34
2024-04-18T15:18:55.445Z,57.84
2024-04-18T15:19:55.447Z,60.63
2024-04-18T15:20:55.580Z,54.59
2024-04-18T15:21:55.663Z,60.44
2024-04-18T15:22:56.323Z,57.88
2024-04-18T15:23:55.801Z,59.07
2024-04-18T15:24:55.834Z,58.92
2024-04-18T15:25:55.900Z,61.92
2024-04-18T15:26:55.952Z,62.62
2024-04-18T15:27:55.986Z,64.94
2024-04-18T15:28:56.039Z,66.19
2024-04-18T15:29:56.060Z,71.33
2024-04-18T15:30:56.136Z,72.61
2024-04-18T15:31:56.233Z,71.72
2024-04-18T15:32:56.272Z,72.42
2024-04-18T15:33:56.271Z,70.00
2024-04-18T15:34:56.321Z,71.34
2024-04-18T15:35:56.344Z,69.80
2024-04-18T15:36:56.485Z,70.77
2024-04-18T15:37:56.575Z,76.17
2024-04-18T15:38:56.679Z,75.24
2024-04-18T15:39:56.777Z,72.06
2024-04-18T15:40:56.923Z,72.33
2024-04-18T15:41:57.084Z,70.24
2024-04-18T15:42:57.147Z,69.14
2024-04-18T15:43:57.232Z,66.64
2024-04-18T15:44:57.329Z,65.68
2024-04-18T15:45:59.255Z,63.79
2024-04-18T15:46:57.495Z,62.01
2024-04-18T15:47:57.541Z,59.48
2024-04-18T15:48:57.487Z,61.60
2024-04-18T15:49:57.441Z,57.14
2024-04-18T15:50:57.465Z,58.60
2024-04-18T15:51:57.442Z,57.91
2024-04-18T15:52:57.478Z,58.56
2024-04-18T15:53:57.455Z,57.86
2024-04-18T15:55:08.585Z,56.16
2024-04-18T15:55:58.529Z,56.10
2024-04-18T15:56:57.514Z,55.71
2024-04-18T15:57:57.482Z,53.96
2024-04-18T15:58:57.496Z,53.90
2024-04-18T15:59:57.483Z,50.73
2024-04-18T16:00:57.486Z,50.08
2024-04-18T16:01:57.521Z,52.45
2024-04-18T16:02:58.921Z,50.60
2024-04-18T16:04:52.448Z,50.00
2024-04-18T16:05:52.372Z,50.00
2024-04-18T16:06:52.390Z,50.00
2024-04-18T16:07:52.392Z,50.00
2024-04-18T16:08:52.395Z,50.00
2024-04-18T16:09:52.376Z,50.29
2024-04-18T16:10:52.385Z,51.37
2024-04-18T16:11:52.407Z,52.76
2024-04-18T16:12:52.445Z,50.00
2024-04-18T16:13:52.365Z,51.96
2024-04-18T16:14:52.370Z,50.68
2024-04-18T16:15:52.373Z,50.00
2024-04-18T16:16:52.454Z,51.50
2024-04-18T16:17:52.411Z,51.02
2024-04-18T16:18:52.431Z,51.30
2024-04-18T16:19:52.430Z,52.19
2024-04-18T16:20:52.410Z,52.58
2024-04-18T16:21:52.442Z,51.88
2024-04-18T16:22:52.470Z,51.82
2024-04-18T16:23:52.429Z,51.94
2024-04-18T16:24:52.427Z,50.97
2024-04-18T16:25:52.431Z,50.62
2024-04-18T16:26:52.437Z,50.56
2024-04-18T16:27:52.461Z,50.12
2024-04-18T16:28:52.455Z,52.05
2024-04-18T16:29:52.428Z,51.25
2024-04-18T16:30:52.543Z,51.82
2024-04-18T16:31:52.644Z,51.48
2024-04-18T16:32:52.800Z,50.94
2024-04-18T16:33:52.883Z,50.00
2024-04-18T16:34:52.959Z,51.84
2024-04-18T16:35:53.089Z,51.28
2024-04-18T16:37:04.720Z,53.31
2024-04-18T16:37:54.250Z,53.37
2024-04-18T16:38:53.278Z,53.48
2024-04-18T16:39:53.261Z,53.41
2024-04-18T16:40:53.242Z,54.02
2024-04-18T16:41:53.280Z,54.14
2024-04-18T16:42:53.262Z,53.03
2024-04-18T16:43:53.280Z,54.28
2024-04-18T16:44:53.302Z,52.87
2024-04-18T16:45:53.308Z,52.74
2024-04-18T16:46:53.407Z,53.35
2024-04-18T16:47:53.658Z,52.91
2024-04-18T16:48:53.692Z,52.92
2024-04-18T16:49:53.781Z,52.85
2024-04-18T16:50:53.902Z,50.82
2024-04-18T16:51:54.045Z,50.12
2024-04-18T16:52:54.156Z,50.00
2024-04-18T16:53:54.295Z,51.99
2024-04-18T16:54:54.376Z,53.30
2024-04-18T16:55:54.544Z,54.84
2024-04-18T16:56:54.662Z,55.59
2024-04-18T16:57:54.809Z,55.13
2024-04-18T16:58:54.931Z,55.15
2024-04-18T16:59:55.028Z,55.14
2024-04-18T17:00:55.337Z,57.34
2024-04-18T17:01:55.311Z,54.59
2024-04-18T17:02:55.529Z,51.82
2024-04-18T17:03:55.708Z,50.11
2024-04-18T17:04:55.660Z,50.00
2024-04-18T17:05:55.772Z,50.35
2024-04-18T17:06:55.988Z,50.27
2024-04-18T17:07:56.155Z,50.31
2024-04-18T17:08:56.115Z,50.30
2024-04-18T17:09:56.226Z,50.01
2024-04-18T17:10:56.343Z,50.00
2024-04-18T17:11:56.391Z,50.00
2024-04-18T17:12:56.527Z,50.00
2024-04-18T17:13:56.796Z,50.00
2024-04-18T17:14:56.688Z,50.51
2024-04-18T17:15:56.684Z,50.24
2024-04-18T17:16:56.697Z,50.19
2024-04-18T17:17:56.851Z,50.18
2024-04-18T17:18:56.995Z,50.27
2024-04-18T17:19:56.882Z,50.51
2024-04-18T17:20:56.928Z,51.08
2024-04-18T17:21:56.970Z,51.43
2024-04-18T17:22:57.045Z,50.06
2024-04-18T17:23:57.344Z,50.55
2024-04-18T17:24:57.170Z,50.33
2024-04-18T17:25:57.173Z,51.21
2024-04-18T17:26:57.232Z,50.64
2024-04-18T17:27:57.285Z,50.07
2024-04-18T17:28:57.353Z,50.00
2024-04-18T17:29:57.391Z,51.32
2024-04-18T17:30:57.443Z,51.10
2024-04-18T17:31:57.569Z,52.65
2024-04-18T17:32:57.608Z,51.83
2024-04-18T17:33:57.617Z,51.45
2024-04-18T17:34:57.657Z,51.07
2024-04-18T17:35:57.717Z,50.00
2024-04-18T17:36:57.791Z,50.82
2024-04-18T17:37:57.830Z,51.29
2024-04-18T17:38:57.899Z,50.95
2024-04-18T17:39:57.948Z,51.32
2024-04-18T17:40:58.365Z,52.38
2024-04-18T17:41:58.110Z,52.75
2024-04-18T17:42:58.139Z,52.37
2024-04-18T17:43:58.201Z,51.80
2024-04-18T17:44:58.299Z,53.65
2024-04-18T17:45:58.335Z,52.60
2024-04-18T17:46:58.427Z,50.37
2024-04-18T17:47:58.609Z,52.06
2024-04-18T17:48:58.672Z,51.59
2024-04-18T17:49:58.660Z,52.30
2024-04-18T17:50:58.732Z,52.80
2024-04-18T17:51:58.776Z,51.77
2024-04-18T17:52:58.872Z,53.69
2024-04-18T17:53:58.931Z,53.02
2024-04-18T17:54:59.893Z,55.11
2024-04-18T17:55:59.059Z,56.97
2024-04-18T17:56:59.097Z,56.50
2024-04-18T17:57:59.163Z,58.36
2024-04-18T17:58:59.167Z,55.87
2024-04-18T17:59:59.170Z,55.35
2024-04-18T18:00:59.257Z,58.91
2024-04-18T18:01:59.300Z,58.62
2024-04-18T18:02:59.482Z,60.42
2024-04-18T18:03:59.503Z,60.29
2024-04-18T18:04:59.528Z,59.89
2024-04-18T18:05:59.608Z,63.36
2024-04-18T18:06:59.681Z,63.90
2024-04-18T18:07:59.739Z,62.81
2024-04-18T18:08:59.827Z,62.84
2024-04-18T18:09:59.915Z,63.49
2024-04-18T18:10:59.991Z,64.18
2024-04-18T18:12:00.106Z,62.88
2024-04-18T18:13:00.170Z,63.22
2024-04-18T18:14:00.243Z,62.98
2024-04-18T18:15:00.530Z,64.00
2024-04-18T18:16:00.410Z,63.93
2024-04-18T18:17:00.523Z,64.44
2024-04-18T18:18:00.752Z,64.32
2024-04-18T18:19:00.782Z,62.56
2024-04-18T18:20:00.762Z,62.49
2024-04-18T18:21:00.870Z,64.29
2024-04-18T18:22:00.953Z,63.68
2024-04-18T18:23:01.045Z,62.28
2024-04-18T18:24:01.116Z,62.94
2024-04-18T18:25:01.194Z,63.00
2024-04-18T18:26:01.295Z,60.56
2024-04-18T18:27:01.376Z,64.71
2024-04-18T18:28:01.473Z,60.62
2024-04-18T18:29:01.569Z,62.10
2024-04-18T18:30:01.774Z,60.58
2024-04-18T18:31:01.802Z,60.15
2024-04-18T18:32:01.954Z,61.25
2024-04-18T18:33:02.007Z,60.04
2024-04-18T18:34:02.077Z,61.54
2024-04-18T18:35:02.166Z,58.10
2024-04-18T18:36:02.228Z,59.85
2024-04-18T18:37:02.348Z,61.49
2024-04-18T18:38:02.551Z,58.42
2024-04-18T18:39:02.552Z,56.92
2024-04-18T18:40:02.661Z,57.97
2024-04-18T18:41:02.775Z,58.78
2024-04-18T18:42:02.885Z,60.31
2024-04-18T18:43:02.957Z,60.77
2024-04-18T18:44:03.088Z,59.92
2024-04-18T18:45:03.163Z,58.60
2024-04-18T18:46:03.285Z,56.69
2024-04-18T18:47:03.406Z,58.42
2024-04-18T18:48:03.609Z,54.81
2024-04-18T18:49:03.786Z,55.08
2024-04-18T18:50:03.678Z,51.81
2024-04-18T18:51:03.823Z,51.11
2024-04-18T18:52:03.942Z,52.86
2024-04-18T18:53:04.057Z,52.60
2024-04-18T18:54:04.147Z,52.69
2024-04-18T18:55:04.268Z,50.30
2024-04-18T18:56:04.372Z,50.00
2024-04-18T18:57:06.245Z,50.55
2024-04-18T18:58:04.473Z,53.75
2024-04-18T18:59:04.491Z,52.55
2024-04-18T19:00:04.499Z,53.31
2024-04-18T19:01:04.638Z,53.14
2024-04-18T19:02:04.560Z,53.10
2024-04-18T19:03:05.382Z,51.53
2024-04-18T19:04:04.573Z,52.17
2024-04-18T19:05:04.501Z,53.17
2024-04-18T19:06:04.537Z,52.77
2024-04-18T19:07:04.546Z,50.79
2024-04-18T19:08:04.520Z,51.72
2024-04-18T19:09:04.537Z,54.05
2024-04-18T19:10:04.572Z,55.69
2024-04-18T19:11:04.609Z,55.06
2024-04-18T19:12:04.563Z,54.82
2024-04-18T19:13:04.571Z,55.61
2024-04-18T19:14:04.522Z,57.51
2024-04-18T19:15:04.550Z,56.85
2024-04-18T19:16:04.548Z,57.62
2024-04-18T19:17:04.623Z,58.08
2024-04-18T19:18:04.610Z,56.93
2024-04-18T19:19:04.669Z,60.19
2024-04-18T19:20:04.772Z,59.96
2024-04-18T19:21:04.915Z,58.06
2024-04-18T19:22:05.067Z,61.26
2024-04-18T19:23:05.211Z,59.03
2024-04-18T19:24:05.298Z,62.56
2024-04-18T19:25:05.435Z,62.41
2024-04-18T19:26:05.550Z,62.05
2024-04-18T19:27:05.821Z,64.97
2024-04-18T19:28:05.850Z,66.84
2024-04-18T19:29:05.979Z,71.57
2024-04-18T19:30:06.124Z,70.78
2024-04-18T19:31:06.242Z,69.17
2024-04-18T19:32:06.355Z,71.20
2024-04-18T19:33:06.694Z,73.42
2024-04-18T19:34:06.681Z,71.51
2024-04-18T19:35:06.703Z,72.59
2024-04-18T19:36:06.859Z,72.82
2024-04-18T19:37:06.968Z,70.70
2024-04-18T19:38:07.072Z,70.15
2024-04-18T19:39:07.221Z,70.85
2024-04-18T19:40:07.267Z,71.79
2024-04-18T19:41:07.395Z,71.97
2024-04-18T19:42:07.510Z,71.21
2024-04-18T19:43:07.639Z,70.68
2024-04-18T19:44:07.701Z,71.25